Terminal Aerodrome Forecast
Issued by NWS

Home | Current Version | Previous Version | Text Only | Print | Product List | Glossary On
Versions: 1 2 3 4 5 6 7 8 9 10 11 12 13 14 15 16 17 18 19 20
000
FTUS44 KMOB 201124
TAFBFM
TAF
KBFM 201124Z 2012/2112 VRB03KT 6SM BR FEW020
     FM201500 11006KT P6SM SCT060
     FM201700 13006KT P6SM VCTS SCT035CB SCT060
      TEMPO 2019/2023 VRB15G25KT 3SM TSRA BKN040CB BKN080
     FM210000 13006KT P6SM SHRA SCT080
     FM210500 VRB03KT P6SM OVC250=

USA.gov is the U.S. government's official web portal to all federal, state and local government web resources and services.